Time;durP1;ratioP1;P1;durP2;ratioP2;P2;SDS_P1;SDS_P2;PMS_P1;PMS_P2;Temp;Humidity;BMP_temperature;BMP_pressure;BME280_temperature;BME280_humidity;BME280_pressure;Samples;Min_cycle;Max_cycle;Signal;HPM_P1;HPM_P2
2022/11/30 00:00:59;;;;;;;36.70;20.35;;;6.60;99.90;;;;;;4994020;28;20054;-70
2022/11/30 00:03:25;;;;;;;42.10;21.80;;;6.50;99.90;;;;;;4999417;28;20057;-72
2022/11/30 00:05:51;;;;;;;46.75;23.02;;;6.50;99.90;;;;;;4999267;28;20173;-70
2022/11/30 00:08:17;;;;;;;45.30;22.33;;;6.40;99.90;;;;;;4995977;28;20429;-70
2022/11/30 00:10:43;;;;;;;48.40;23.15;;;6.40;99.90;;;;;;5000185;28;20045;-70
2022/11/30 00:13:09;;;;;;;45.97;22.30;;;6.30;99.90;;;;;;4992677;28;20480;-69
2022/11/30 00:15:38;;;;;;;44.22;21.88;;;6.30;99.90;;;;;;4980963;28;20057;-70
2022/11/30 00:18:03;;;;;;;42.05;21.25;;;6.20;99.90;;;;;;4997891;28;20447;-71
2022/11/30 00:20:29;;;;;;;37.90;21.80;;;6.10;99.90;;;;;;4998291;28;20228;-70
2022/11/30 00:22:59;;;;;;;39.65;19.23;;;6.10;99.90;;;;;;4980523;28;20115;-70
2022/11/30 00:25:25;;;;;;;37.83;19.48;;;6.00;99.90;;;;;;4982189;28;20065;-70
2022/11/30 00:27:51;;;;;;;37.00;19.88;;;6.00;99.90;;;;;;4966482;28;20046;-70
2022/11/30 00:30:16;;;;;;;38.03;19.55;;;6.00;99.90;;;;;;4981988;28;20573;-71
2022/11/30 00:32:42;;;;;;;52.20;21.23;;;5.90;99.90;;;;;;4974904;28;20046;-70
2022/11/30 00:35:08;;;;;;;51.28;21.65;;;6.20;99.90;;;;;;4997704;28;20034;-71
2022/11/30 00:37:34;;;;;;;43.05;22.02;;;5.80;99.90;;;;;;4964122;28;20042;-70
2022/11/30 00:40:00;;;;;;;41.90;19.67;;;5.80;99.90;;;;;;5000042;28;20045;-71
2022/11/30 00:42:28;;;;;;;36.90;19.33;;;5.80;99.90;;;;;;4990358;28;20280;-70
2022/11/30 00:44:54;;;;;;;38.40;17.50;;;5.70;99.90;;;;;;4998409;28;20042;-69
2022/11/30 00:47:20;;;;;;;39.40;19.05;;;5.70;99.90;;;;;;4965001;28;20049;-71
2022/11/30 00:49:45;;;;;;;35.55;17.02;;;5.70;99.90;;;;;;4983209;28;20057;-70
2022/11/30 00:52:11;;;;;;;40.30;18.42;;;5.80;99.90;;;;;;4985339;28;20073;-70
2022/11/30 00:54:37;;;;;;;39.15;18.20;;;5.80;99.90;;;;;;4991691;28;20112;-70
2022/11/30 00:57:03;;;;;;;40.10;19.17;;;5.60;99.90;;;;;;4996940;28;20045;-70
2022/11/30 00:59:28;;;;;;;34.60;17.55;;;5.60;99.90;;;;;;4985390;28;20123;-70
2022/11/30 01:01:54;;;;;;;37.08;18.35;;;5.60;99.90;;;;;;4998074;28;20057;-70
2022/11/30 01:04:20;;;;;;;37.50;18.58;;;5.50;99.90;;;;;;4982941;28;20446;-71
2022/11/30 01:06:46;;;;;;;37.25;17.83;;;5.50;99.90;;;;;;4982283;28;20080;-73
2022/11/30 01:09:12;;;;;;;36.13;17.42;;;5.50;99.90;;;;;;4999342;28;20050;-73
2022/11/30 01:11:38;;;;;;;30.05;17.25;;;5.50;99.90;;;;;;4979527;28;20069;-73
2022/11/30 01:14:03;;;;;;;30.92;16.45;;;5.60;99.90;;;;;;4981982;28;20045;-73
2022/11/30 01:16:32;;;;;;;31.58;16.40;;;5.50;99.90;;;;;;4998453;28;20069;-73
2022/11/30 01:18:58;;;;;;;41.45;19.25;;;5.60;99.90;;;;;;4980198;28;20062;-73
2022/11/30 01:21:29;;;;;;;34.75;17.48;;;5.60;99.90;;;;;;4986694;28;20140;-73
2022/11/30 01:23:55;;;;;;;41.47;20.25;;;5.60;99.90;;;;;;4976014;28;20054;-70
2022/11/30 01:26:21;;;;;;;31.65;18.58;;;5.60;99.90;;;;;;4965987;28;20054;-71
2022/11/30 01:28:52;;;;;;;33.83;18.17;;;5.70;99.90;;;;;;4996165;28;20117;-70
2022/11/30 01:31:18;;;;;;;30.23;17.40;;;5.60;99.90;;;;;;4998573;28;20042;-71
2022/11/30 01:33:49;;;;;;;27.98;16.70;;;5.60;99.90;;;;;;4996888;28;20407;-70
2022/11/30 01:36:17;;;;;;;28.45;16.63;;;5.70;99.90;;;;;;4991665;28;21231;-70
2022/11/30 01:38:46;;;;;;;28.52;16.20;;;5.70;99.90;;;;;;4981995;28;20046;-71
2022/11/30 01:41:22;;;;;;;30.38;16.77;;;5.70;99.90;;;;;;4976879;28;20053;-70
2022/11/30 01:43:54;;;;;;;29.30;17.13;;;5.70;99.90;;;;;;4997151;28;20050;-70
2022/11/30 01:46:37;;;;;;;28.75;17.15;;;5.70;99.90;;;;;;4996792;28;20050;-70
2022/11/30 01:49:16;;;;;;;27.98;16.58;;;5.70;99.90;;;;;;4977738;28;20523;-70
2022/11/30 01:52:00;;;;;;;32.88;18.65;;;5.70;99.90;;;;;;4981003;28;20573;-70
2022/11/30 01:54:32;;;;;;;33.58;19.30;;;5.70;99.90;;;;;;4965687;28;20053;-70
2022/11/30 01:57:05;;;;;;;35.63;19.30;;;5.80;99.90;;;;;;4986612;28;20054;-70
2022/11/30 01:59:31;;;;;;;37.47;18.88;;;5.80;99.90;;;;;;4997508;28;20050;-70
2022/11/30 02:02:00;;;;;;;37.65;20.13;;;5.80;99.90;;;;;;4974736;28;20150;-70
2022/11/30 02:04:29;;;;;;;34.03;18.60;;;5.80;99.90;;;;;;4982473;28;21527;-70
2022/11/30 02:06:57;;;;;;;35.28;18.88;;;5.80;99.90;;;;;;4994234;28;20167;-70
2022/11/30 02:09:29;;;;;;;36.35;20.45;;;5.80;99.90;;;;;;4981133;28;20459;-71
2022/11/30 02:11:55;;;;;;;31.38;17.65;;;5.80;99.90;;;;;;4986774;28;20054;-70
2022/11/30 02:14:38;;;;;;;31.08;19.40;;;5.80;99.90;;;;;;4990170;28;20134;-70
2022/11/30 02:17:16;;;;;;;32.10;19.58;;;5.80;99.90;;;;;;4996184;28;20050;-70
2022/11/30 02:20:00;;;;;;;33.05;18.90;;;5.90;99.90;;;;;;4993959;28;20096;-70
2022/11/30 02:22:45;;;;;;;34.30;19.30;;;5.90;99.90;;;;;;4974912;28;20116;-70
2022/11/30 02:25:16;;;;;;;32.35;17.73;;;5.90;99.90;;;;;;4996735;28;20049;-70
2022/11/30 02:27:42;;;;;;;;;;;5.80;99.90;;;;;;4979610;28;20189;-70
2022/11/30 02:30:15;;;;;;;33.20;18.63;;;6.30;99.90;;;;;;4995760;28;19929;-70
2022/11/30 02:32:58;;;;;;;32.05;18.35;;;5.90;99.90;;;;;;4983313;28;20141;-70
2022/11/30 02:35:30;;;;;;;31.77;19.40;;;5.90;99.90;;;;;;4990347;28;20049;-70
2022/11/30 02:37:58;;;;;;;33.33;19.92;;;5.90;99.90;;;;;;4993954;28;20038;-70
2022/11/30 02:40:24;;;;;;;33.90;19.65;;;5.90;99.90;;;;;;4997706;28;20108;-70
2022/11/30 02:42:52;;;;;;;33.58;19.10;;;5.90;99.90;;;;;;4993415;28;20041;-70
2022/11/30 02:45:27;;;;;;;33.95;18.65;;;5.90;99.90;;;;;;5000021;28;20054;-70
2022/11/30 02:48:06;;;;;;;32.53;19.48;;;5.90;99.90;;;;;;4997539;28;20049;-70
2022/11/30 02:50:49;;;;;;;35.90;19.75;;;5.90;99.90;;;;;;4998862;28;20132;-70
2022/11/30 02:53:15;;;;;;;35.50;19.65;;;5.90;99.90;;;;;;5000119;28;20765;-70
2022/11/30 02:55:41;;;;;;;33.85;19.77;;;5.90;99.90;;;;;;4994911;28;20039;-69
2022/11/30 02:58:07;;;;;;;35.75;19.77;;;5.90;99.90;;;;;;4984534;28;20057;-70
2022/11/30 03:00:32;;;;;;;35.53;20.40;;;5.90;99.90;;;;;;4997531;28;20124;-70
2022/11/30 03:02:58;;;;;;;34.72;20.48;;;6.00;99.90;;;;;;4987961;28;20077;-69
2022/11/30 03:05:24;;;;;;;35.03;20.60;;;5.90;99.90;;;;;;4999839;28;20116;-70
2022/11/30 03:07:50;;;;;;;34.65;19.48;;;6.00;99.90;;;;;;4996286;28;20050;-71
2022/11/30 03:10:16;;;;;;;35.58;19.73;;;6.00;99.90;;;;;;5000912;28;20057;-72
2022/11/30 03:12:41;;;;;;;34.38;19.70;;;6.00;99.90;;;;;;4993040;28;20257;-72
2022/11/30 03:15:08;;;;;;;33.17;19.27;;;6.00;99.90;;;;;;4999389;28;20125;-73
2022/11/30 03:17:34;;;;;;;37.30;19.52;;;5.90;99.90;;;;;;4999411;28;20046;-73
2022/11/30 03:19:59;;;;;;;37.13;21.33;;;5.90;99.90;;;;;;4983381;28;20506;-73
2022/11/30 03:22:25;;;;;;;39.13;21.67;;;5.90;99.90;;;;;;4986563;28;20119;-73
2022/11/30 03:24:51;;;;;;;36.33;21.25;;;5.90;99.90;;;;;;4994532;28;20494;-72
2022/11/30 03:27:16;;;;;;;35.75;20.95;;;6.20;99.90;;;;;;5002380;28;20041;-72
2022/11/30 03:29:42;;;;;;;38.78;22.85;;;5.90;99.90;;;;;;4966349;28;20057;-73
2022/11/30 03:32:08;;;;;;;40.83;21.70;;;5.90;99.90;;;;;;4998111;28;20526;-72
2022/11/30 03:34:34;;;;;;;43.05;23.40;;;5.90;99.90;;;;;;4998235;28;20654;-73
2022/11/30 03:36:59;;;;;;;36.05;22.27;;;5.90;99.90;;;;;;4985565;28;20381;-73
2022/11/30 03:39:29;;;;;;;41.63;23.10;;;5.90;99.90;;;;;;5000649;28;20041;-73
2022/11/30 03:41:55;;;;;;;42.28;23.25;;;5.90;99.90;;;;;;4993529;28;20040;-73
2022/11/30 03:44:21;;;;;;;38.88;23.38;;;5.90;99.90;;;;;;5000772;28;20589;-73
2022/11/30 03:46:47;;;;;;;39.08;22.48;;;6.00;99.90;;;;;;4993547;28;20050;-73
2022/11/30 03:49:13;;;;;;;43.40;23.95;;;6.40;99.90;;;;;;4998998;28;20441;-73
2022/11/30 03:51:38;;;;;;;40.83;23.80;;;6.00;99.90;;;;;;4999498;28;20040;-73
2022/11/30 03:54:04;;;;;;;42.15;24.70;;;6.00;99.90;;;;;;4996230;28;20068;-73
2022/11/30 03:56:30;;;;;;;43.45;24.00;;;6.00;99.90;;;;;;4997188;28;20034;-73
2022/11/30 03:58:56;;;;;;;40.80;22.92;;;6.00;99.90;;;;;;4994500;28;20065;-73
2022/11/30 04:01:24;;;;;;;43.80;24.20;;;6.00;99.90;;;;;;4998549;28;20819;-73
2022/11/30 04:03:51;;;;;;;44.00;25.02;;;6.10;99.90;;;;;;4999410;28;20042;-73
2022/11/30 04:06:17;;;;;;;47.78;25.50;;;6.00;99.90;;;;;;4978904;28;20550;-73
2022/11/30 04:08:43;;;;;;;44.22;25.50;;;6.00;99.90;;;;;;4995380;28;20140;-72
2022/11/30 04:11:09;;;;;;;50.42;24.67;;;6.00;99.90;;;;;;4996219;28;20640;-73
2022/11/30 04:13:37;;;;;;;43.60;23.85;;;6.10;99.90;;;;;;4998202;28;20152;-73
2022/11/30 04:16:03;;;;;;;45.83;25.00;;;6.20;99.90;;;;;;5003636;28;20042;-73
2022/11/30 04:18:31;;;;;;;44.33;25.20;;;6.00;99.90;;;;;;4991619;28;20046;-72
2022/11/30 04:21:00;;;;;;;49.28;26.50;;;6.10;99.90;;;;;;5004658;28;20082;-73
2022/11/30 04:23:30;;;;;;;45.63;25.55;;;6.00;99.90;;;;;;4979402;28;20073;-73
2022/11/30 04:26:01;;;;;;;48.30;26.90;;;6.10;99.90;;;;;;5005425;28;20053;-73
2022/11/30 04:28:27;;;;;;;51.85;26.73;;;6.10;99.90;;;;;;4981641;28;20148;-72
2022/11/30 04:30:53;;;;;;;48.13;26.10;;;6.10;99.90;;;;;;4998984;28;20041;-73
2022/11/30 04:33:19;;;;;;;52.60;27.42;;;6.10;99.90;;;;;;4993177;28;20129;-73
2022/11/30 04:35:49;;;;;;;49.25;26.38;;;6.10;99.90;;;;;;4973203;28;20077;-73
2022/11/30 04:38:15;;;;;;;48.67;26.33;;;6.10;99.90;;;;;;4989181;28;20125;-73
2022/11/30 04:40:41;;;;;;;49.97;26.65;;;6.10;99.90;;;;;;4960572;28;20056;-73
2022/11/30 04:43:11;;;;;;;49.72;26.25;;;6.10;99.90;;;;;;5001933;28;20081;-73
2022/11/30 04:45:37;;;;;;;43.80;23.48;;;6.10;99.90;;;;;;4997986;28;20047;-73
2022/11/30 04:48:03;;;;;;;47.20;25.10;;;6.00;99.90;;;;;;4994901;28;20054;-73
2022/11/30 04:50:29;;;;;;;46.85;24.55;;;6.10;99.90;;;;;;4968556;28;20054;-74
2022/11/30 04:52:55;;;;;;;46.63;25.17;;;6.00;99.90;;;;;;4989088;28;20523;-73
2022/11/30 04:55:21;;;;;;;44.45;24.73;;;6.10;99.90;;;;;;4988176;28;20034;-72
2022/11/30 04:57:47;;;;;;;46.00;25.17;;;6.00;99.90;;;;;;4959631;28;20053;-70
2022/11/30 05:00:15;;;;;;;46.47;25.40;;;6.10;99.90;;;;;;4968716;28;20046;-70
2022/11/30 05:02:41;;;;;;;46.63;25.42;;;6.00;99.90;;;;;;4962780;28;20488;-70
2022/11/30 05:05:07;;;;;;;46.92;24.95;;;6.00;99.90;;;;;;4994721;28;20127;-70
2022/11/30 05:07:33;;;;;;;46.42;24.83;;;6.10;99.90;;;;;;5003198;28;20052;-70
2022/11/30 05:09:59;;;;;;;46.88;23.38;;;6.10;99.90;;;;;;4989481;28;20046;-70
2022/11/30 05:12:24;;;;;;;44.83;23.88;;;6.10;99.90;;;;;;4986252;28;20618;-70
2022/11/30 05:14:50;;;;;;;43.58;23.92;;;6.10;99.90;;;;;;4959741;28;20784;-70
2022/11/30 05:17:17;;;;;;;43.20;23.08;;;6.10;99.90;;;;;;5000561;28;20076;-70
2022/11/30 05:19:42;;;;;;;48.85;24.17;;;6.10;99.90;;;;;;4999476;28;20043;-70
2022/11/30 05:22:08;;;;;;;43.00;24.90;;;6.10;99.90;;;;;;4995859;28;20048;-70
2022/11/30 05:24:34;;;;;;;43.72;24.58;;;6.10;99.90;;;;;;5004417;28;20056;-70
2022/11/30 05:27:00;;;;;;;53.78;25.48;;;6.10;99.90;;;;;;4990256;28;20042;-70
2022/11/30 05:29:25;;;;;;;50.00;24.98;;;6.60;99.90;;;;;;4992696;28;20526;-70
2022/11/30 05:31:51;;;;;;;51.67;25.90;;;6.10;99.90;;;;;;4995400;28;20067;-70
2022/11/30 05:34:17;;;;;;;53.33;26.42;;;6.10;99.90;;;;;;4998703;28;20128;-70
2022/11/30 05:36:42;;;;;;;49.33;24.67;;;6.10;99.90;;;;;;5002279;28;20627;-70
2022/11/30 05:39:08;;;;;;;50.40;24.90;;;6.10;99.90;;;;;;4975571;28;20038;-70
2022/11/30 05:41:34;;;;;;;64.45;26.88;;;6.10;99.90;;;;;;4988871;28;20045;-70
2022/11/30 05:44:00;;;;;;;59.42;26.10;;;6.10;99.90;;;;;;4989615;28;20129;-70
2022/11/30 05:46:27;;;;;;;59.45;27.23;;;6.10;99.90;;;;;;5002527;28;20042;-70
2022/11/30 05:48:52;;;;;;;64.10;27.20;;;6.20;99.90;;;;;;4996366;28;20069;-70
2022/11/30 05:51:19;;;;;;;65.88;28.67;;;6.30;99.90;;;;;;4995143;28;20042;-70
2022/11/30 05:53:46;;;;;;;60.55;26.48;;;6.50;99.90;;;;;;4996846;28;20033;-69
2022/11/30 05:56:15;;;;;;;56.95;25.88;;;6.20;99.90;;;;;;4991478;28;20422;-70
2022/11/30 05:58:47;;;;;;;59.92;26.08;;;6.20;99.90;;;;;;4976390;28;20049;-70
2022/11/30 06:01:27;;;;;;;64.88;27.55;;;6.20;99.90;;;;;;4976414;28;20053;-70
2022/11/30 06:03:53;;;;;;;59.83;27.07;;;6.20;99.90;;;;;;4976134;28;20053;-70
2022/11/30 06:06:19;;;;;;;62.45;27.65;;;6.20;99.90;;;;;;4976765;28;20859;-70
2022/11/30 06:08:48;;;;;;;57.42;26.08;;;6.50;99.90;;;;;;4974062;28;20073;-70
2022/11/30 06:11:15;;;;;;;55.35;26.27;;;6.50;99.90;;;;;;4996588;28;20116;-70
2022/11/30 06:13:41;;;;;;;63.65;28.80;;;6.20;99.90;;;;;;4949869;28;20046;-70
2022/11/30 06:16:08;;;;;;;62.05;27.17;;;6.20;99.90;;;;;;4995060;28;20049;-70
2022/11/30 06:18:35;;;;;;;60.97;27.05;;;6.20;99.90;;;;;;4991054;28;20073;-70
2022/11/30 06:21:03;;;;;;;61.70;26.92;;;6.30;99.90;;;;;;4976591;28;20046;-70
2022/11/30 06:23:29;;;;;;;61.25;26.52;;;6.20;99.90;;;;;;4981687;28;20053;-70
2022/11/30 06:25:55;;;;;;;57.40;26.45;;;6.30;99.90;;;;;;4986614;28;20049;-70
2022/11/30 06:28:21;;;;;;;61.47;26.45;;;6.20;99.90;;;;;;4986822;28;20418;-70
2022/11/30 06:30:46;;;;;;;63.85;26.85;;;6.70;99.90;;;;;;4987993;28;20530;-70
2022/11/30 06:33:12;;;;;;;60.58;26.10;;;6.20;99.90;;;;;;5000999;28;20133;-70
2022/11/30 06:35:45;;;;;;;62.53;26.48;;;6.20;99.90;;;;;;4971502;28;20150;-70
2022/11/30 06:38:11;;;;;;;56.33;26.17;;;6.40;99.90;;;;;;5001550;28;20459;-71
2022/11/30 06:40:36;;;;;;;67.90;26.52;;;6.00;99.90;;;;;;4987609;28;20058;-71
2022/11/30 06:43:02;;;;;;;61.85;25.98;;;6.20;99.90;;;;;;4981990;28;20044;-70
2022/11/30 06:45:28;;;;;;;60.92;26.17;;;6.20;99.90;;;;;;5003478;28;20046;-70
2022/11/30 06:47:55;;;;;;;59.53;27.38;;;6.70;99.90;;;;;;5002202;28;20039;-70
2022/11/30 06:50:21;;;;;;;66.50;27.98;;;6.60;99.90;;;;;;4983512;28;20080;-69
2022/11/30 06:52:47;;;;;;;63.88;27.70;;;6.20;99.90;;;;;;4980225;28;20058;-69
2022/11/30 06:55:13;;;;;;;63.13;27.40;;;6.20;99.90;;;;;;5000091;28;20046;-70
2022/11/30 06:57:38;;;;;;;63.92;28.83;;;6.60;99.90;;;;;;4998214;28;20049;-70
2022/11/30 07:00:05;;;;;;;58.53;26.42;;;6.30;99.90;;;;;;4970324;28;20056;-70
2022/11/30 07:02:30;;;;;;;55.53;25.17;;;6.20;99.90;;;;;;4984176;28;20515;-70
2022/11/30 07:04:56;;;;;;;57.58;24.02;;;6.20;99.90;;;;;;4966672;28;20133;-70
2022/11/30 07:07:22;;;;;;;56.92;25.15;;;6.20;99.90;;;;;;5000238;28;20046;-69
2022/11/30 07:09:49;;;;;;;54.85;24.80;;;6.20;99.90;;;;;;4984159;28;20042;-70
2022/11/30 07:12:15;;;;;;;54.90;25.27;;;6.20;99.90;;;;;;4986551;28;20049;-70
2022/11/30 07:14:41;;;;;;;56.45;24.95;;;6.20;99.90;;;;;;5004319;28;20402;-69
2022/11/30 07:17:07;;;;;;;56.78;24.67;;;6.20;99.90;;;;;;4991746;28;20072;-70
2022/11/30 07:19:33;;;;;;;50.03;23.75;;;6.20;99.90;;;;;;4984758;28;20141;-71
2022/11/30 07:21:59;;;;;;;52.15;22.10;;;6.20;99.90;;;;;;4994802;28;20618;-70
2022/11/30 07:27:09;;;;;;;52.35;22.35;;;6.10;99.90;;;;;;4972427;28;20123;-70
2022/11/30 07:29:35;;;;;;;48.05;22.08;;;6.30;99.90;;;;;;4965060;28;20582;-70
2022/11/30 07:32:00;;;;;;;48.60;21.85;;;6.20;99.90;;;;;;4983363;28;20060;-70
2022/11/30 07:34:29;;;;;;;49.20;22.23;;;6.10;99.90;;;;;;4993337;28;20212;-70
2022/11/30 07:36:55;;;;;;;47.40;22.20;;;6.10;99.90;;;;;;4985088;28;20281;-71
2022/11/30 07:39:22;;;;;;;49.85;23.48;;;6.10;99.90;;;;;;4968071;28;20037;-70
2022/11/30 07:41:48;;;;;;;44.75;21.70;;;6.10;99.90;;;;;;4985763;28;20077;-71
2022/11/30 07:44:14;;;;;;;46.38;20.23;;;6.10;99.90;;;;;;4997934;28;20252;-70
2022/11/30 07:46:39;;;;;;;46.90;21.52;;;6.10;99.90;;;;;;4968362;28;20348;-70
2022/11/30 07:49:07;;;;;;;49.50;21.83;;;6.20;99.90;;;;;;4981438;28;20042;-70
2022/11/30 07:51:34;;;;;;;44.42;21.75;;;6.00;99.90;;;;;;4968491;28;20054;-71
2022/11/30 07:54:00;;;;;;;47.10;22.10;;;6.00;99.90;;;;;;5000615;28;20042;-70
2022/11/30 07:56:26;;;;;;;41.92;21.63;;;6.00;99.90;;;;;;4980597;28;20067;-70
2022/11/30 07:58:58;;;;;;;44.75;20.75;;;6.00;99.90;;;;;;4985504;28;20113;-70
2022/11/30 08:01:25;;;;;;;;;;;6.00;99.90;;;;;;4998724;28;20069;-71
2022/11/30 08:03:52;;;;;;;39.92;19.70;;;6.10;99.90;;;;;;4979495;28;20008;-70
2022/11/30 08:06:20;;;;;;;42.10;20.33;;;6.10;99.90;;;;;;4985821;28;20046;-70
2022/11/30 08:08:47;;;;;;;44.03;20.92;;;6.00;99.90;;;;;;4981023;28;20599;-70
2022/11/30 08:11:16;;;;;;;57.83;20.58;;;6.00;99.90;;;;;;4984875;28;20056;-70
2022/11/30 08:13:41;;;;;;;47.58;20.65;;;6.00;99.90;;;;;;4999944;28;20077;-70
2022/11/30 08:16:15;;;;;;;41.95;19.65;;;6.20;99.90;;;;;;5000132;28;20575;-70
2022/11/30 08:18:42;;;;;;;44.78;20.48;;;6.00;99.90;;;;;;4968121;28;20057;-70
2022/11/30 08:21:10;;;;;;;45.45;20.98;;;6.00;99.90;;;;;;4997314;28;20089;-70
2022/11/30 08:23:44;;;;;;;47.00;20.35;;;6.00;99.90;;;;;;4981309;28;20057;-70
2022/11/30 08:26:11;;;;;;;47.20;20.88;;;6.00;99.90;;;;;;4985029;28;20038;-70
2022/11/30 08:28:38;;;;;;;45.03;20.50;;;6.00;99.90;;;;;;4998547;28;20129;-70
2022/11/30 08:31:06;;;;;;;46.15;20.67;;;6.00;99.90;;;;;;4978860;28;20046;-70
2022/11/30 08:33:33;;;;;;;42.20;19.70;;;6.00;99.90;;;;;;4996795;28;20446;-70
2022/11/30 08:36:13;;;;;;;44.38;20.17;;;6.00;99.90;;;;;;4990095;28;20116;-70
2022/11/30 08:38:41;;;;;;;46.05;19.80;;;6.00;99.90;;;;;;4982591;28;20614;-70
2022/11/30 08:41:09;;;;;;;43.60;20.80;;;6.00;99.90;;;;;;4982513;28;20061;-70
2022/11/30 08:43:34;;;;;;;48.10;22.52;;;6.00;99.90;;;;;;5000691;28;20052;-70
2022/11/30 08:46:06;;;;;;;42.95;20.13;;;6.00;99.90;;;;;;4978995;28;20050;-70
2022/11/30 08:48:32;;;;;;;;;;;6.00;99.90;;;;;;4996448;28;20142;-70
2022/11/30 08:51:02;;;;;;;46.38;21.08;;;6.00;99.90;;;;;;4980517;28;19960;-70
2022/11/30 08:53:28;;;;;;;45.45;20.73;;;6.00;99.90;;;;;;4983117;28;20057;-70
2022/11/30 08:55:59;;;;;;;41.50;20.00;;;6.00;99.90;;;;;;4974382;28;20042;-70
2022/11/30 08:58:26;;;;;;;;;;;6.00;99.90;;;;;;4982786;28;20125;-70
2022/11/30 09:00:54;;;;;;;43.60;20.05;;;6.00;99.90;;;;;;4979804;28;20302;-70
2022/11/30 09:03:20;;;;;;;45.47;21.23;;;6.00;99.90;;;;;;4965969;28;20045;-70
2022/11/30 09:05:46;;;;;;;41.42;18.92;;;6.00;99.90;;;;;;4979805;28;20049;-70
2022/11/30 09:08:12;;;;;;;45.60;21.08;;;6.10;99.90;;;;;;4995960;28;20045;-70
2022/11/30 09:10:38;;;;;;;44.42;20.15;;;6.10;99.90;;;;;;4977723;28;20068;-70
2022/11/30 09:13:04;;;;;;;48.45;22.23;;;6.10;99.90;;;;;;4978796;28;20050;-70
2022/11/30 09:15:30;;;;;;;42.75;20.45;;;6.00;99.90;;;;;;4981907;28;20592;-70
2022/11/30 09:17:55;;;;;;;40.00;19.83;;;6.10;99.90;;;;;;5000679;28;20573;-70
2022/11/30 09:20:21;;;;;;;42.13;20.05;;;6.10;99.90;;;;;;5002454;28;20038;-71
2022/11/30 09:22:47;;;;;;;40.55;19.90;;;6.10;99.90;;;;;;4968099;28;20458;-70
2022/11/30 09:25:13;;;;;;;43.00;22.02;;;6.10;99.90;;;;;;4999437;28;20042;-70
2022/11/30 09:27:38;;;;;;;43.58;20.75;;;6.10;99.90;;;;;;5000269;28;20045;-71
2022/11/30 09:30:05;;;;;;;39.28;20.90;;;6.10;99.90;;;;;;4978786;28;20064;-70
2022/11/30 09:32:31;;;;;;;40.53;20.40;;;6.10;99.90;;;;;;5000337;28;20054;-70
2022/11/30 09:34:57;;;;;;;39.45;20.88;;;6.10;99.90;;;;;;4969038;28;20049;-70
2022/11/30 09:37:23;;;;;;;40.42;21.58;;;6.20;99.90;;;;;;4999123;28;20045;-70
2022/11/30 09:39:48;;;;;;;40.55;21.77;;;6.10;99.90;;;;;;4963172;28;20049;-69
2022/11/30 09:42:49;;;;;;;48.10;22.30;;;6.10;99.90;;;;;;4994844;28;20064;-70
2022/11/30 09:45:35;;;;;;;42.47;21.63;;;6.10;99.90;;;;;;4945014;28;20241;-70
2022/11/30 09:48:10;;;;;;;45.35;22.42;;;6.10;99.90;;;;;;4983982;28;20084;-71
2022/11/30 09:50:42;;;;;;;49.85;23.20;;;6.10;99.90;;;;;;4974943;28;20064;-71
2022/11/30 09:53:25;;;;;;;47.22;22.65;;;6.10;99.90;;;;;;4980093;28;20073;-70
2022/11/30 09:55:53;;;;;;;47.40;22.38;;;6.20;99.90;;;;;;4988984;28;20077;-70
2022/11/30 09:58:48;;;;;;;52.25;24.50;;;6.20;99.90;;;;;;4989256;28;20044;-70
2022/11/30 10:01:18;;;;;;;50.78;23.27;;;6.20;99.90;;;;;;4984620;28;20062;-69
2022/11/30 10:03:45;;;;;;;53.95;23.65;;;6.20;99.90;;;;;;4990431;28;20120;-70
2022/11/30 10:06:40;;;;;;;53.83;24.52;;;6.20;99.90;;;;;;5001871;28;20077;-70
2022/11/30 10:09:25;;;;;;;53.42;25.75;;;6.20;99.90;;;;;;4996892;28;20103;-71
2022/11/30 10:12:06;;;;;;;52.03;24.15;;;6.20;99.90;;;;;;4988450;28;20041;-70
2022/11/30 10:14:50;;;;;;;56.95;26.15;;;6.30;99.90;;;;;;4989256;28;20807;-71
2022/11/30 10:17:28;;;;;;;55.35;25.33;;;6.30;99.90;;;;;;5006747;28;20410;-72
2022/11/30 10:20:24;;;;;;;54.15;25.05;;;6.30;99.90;;;;;;4988104;28;20062;-70
2022/11/30 10:23:22;;;;;;;53.72;24.40;;;6.30;99.90;;;;;;5003571;28;20053;-71
2022/11/30 10:26:00;;;;;;;50.45;24.52;;;6.40;99.90;;;;;;4966508;28;20050;-71
2022/11/30 10:28:48;;;;;;;50.92;25.23;;;6.30;99.90;;;;;;4987600;28;20591;-71
2022/11/30 10:31:15;;;;;;;47.85;24.42;;;6.30;99.90;;;;;;5001538;28;20413;-71
2022/11/30 10:33:53;;;;;;;48.58;24.25;;;6.30;99.90;;;;;;4988205;28;20631;-71
2022/11/30 10:36:36;;;;;;;47.92;24.75;;;6.40;99.90;;;;;;4988964;28;20086;-71
2022/11/30 10:39:12;;;;;;;48.83;24.50;;;6.40;99.90;;;;;;4969766;28;20380;-71
2022/11/30 10:41:59;;;;;;;52.08;24.75;;;6.40;99.90;;;;;;5004705;28;20056;-71
2022/11/30 10:44:33;;;;;;;45.95;23.48;;;6.40;99.90;;;;;;4999094;28;20249;-71
2022/11/30 10:47:05;;;;;;;51.28;25.20;;;6.40;99.90;;;;;;4966714;28;20057;-71
2022/11/30 10:49:33;;;;;;;50.35;26.25;;;6.40;99.90;;;;;;5001737;28;20069;-71
2022/11/30 10:52:07;;;;;;;50.72;24.60;;;6.70;99.90;;;;;;5002571;28;20085;-70
2022/11/30 10:54:35;;;;;;;43.78;24.25;;;6.40;99.90;;;;;;5000003;28;20153;-70
2022/11/30 10:57:03;;;;;;;50.08;24.38;;;6.40;99.90;;;;;;4986847;28;20120;-70
2022/11/30 10:59:49;;;;;;;49.67;25.98;;;6.40;99.90;;;;;;4986042;28;20050;-69
2022/11/30 11:02:41;;;;;;;47.80;25.00;;;6.50;99.90;;;;;;5000949;28;20085;-70
2022/11/30 11:05:13;;;;;;;50.03;25.63;;;6.50;99.90;;;;;;4982780;28;20046;-70
2022/11/30 11:08:01;;;;;;;50.45;26.23;;;6.50;99.90;;;;;;4978027;28;20049;-71
2022/11/30 11:10:34;;;;;;;52.38;25.83;;;6.50;99.90;;;;;;5001215;28;20636;-71
2022/11/30 11:13:00;;;;;;;55.70;27.30;;;6.70;99.90;;;;;;4986240;28;20787;-70
2022/11/30 11:15:31;;;;;;;55.90;27.58;;;6.50;99.90;;;;;;4994158;28;20045;-70
2022/11/30 11:18:27;;;;;;;57.60;27.05;;;6.50;99.90;;;;;;4956073;28;20152;-71
2022/11/30 11:21:06;;;;;;;52.58;26.70;;;6.50;99.90;;;;;;4980703;28;20184;-71
2022/11/30 11:23:32;;;;;;;48.40;26.50;;;6.50;99.90;;;;;;4975278;28;20070;-71
2022/11/30 11:25:58;;;;;;;47.58;28.08;;;6.50;99.90;;;;;;4952311;28;20250;-70
2022/11/30 11:28:24;;;;;;;52.33;27.63;;;6.90;99.90;;;;;;4965505;28;20125;-70
2022/11/30 11:30:55;;;;;;;52.40;27.77;;;6.50;99.90;;;;;;4965306;28;20140;-70
2022/11/30 11:33:28;;;;;;;55.58;29.40;;;6.50;99.90;;;;;;4997662;28;20053;-70
2022/11/30 11:36:07;;;;;;;49.40;26.58;;;6.50;99.90;;;;;;4992315;28;20054;-71
2022/11/30 11:38:49;;;;;;;51.35;27.70;;;6.50;99.90;;;;;;4963301;28;20049;-70
2022/11/30 11:41:28;;;;;;;51.40;28.10;;;6.50;99.90;;;;;;4999460;28;20507;-70
2022/11/30 11:44:14;;;;;;;56.95;30.00;;;6.50;99.90;;;;;;4997085;28;20455;-73
2022/11/30 11:47:04;;;;;;;51.05;27.55;;;6.50;99.90;;;;;;4983506;28;20064;-73
2022/11/30 11:49:34;;;;;;;50.90;28.15;;;6.50;99.90;;;;;;4983496;28;20508;-73
2022/11/30 11:52:12;;;;;;;55.45;28.80;;;6.50;99.90;;;;;;5002245;28;20057;-73
2022/11/30 11:54:52;;;;;;;50.33;28.67;;;6.50;99.90;;;;;;5003447;28;20050;-72
2022/11/30 11:57:21;;;;;;;54.60;30.05;;;6.50;99.90;;;;;;4985990;28;20372;-73
2022/11/30 11:59:47;;;;;;;52.17;29.42;;;6.50;99.90;;;;;;4985126;28;20482;-72
2022/11/30 12:02:29;;;;;;;56.17;29.00;;;6.50;99.90;;;;;;4986638;28;20060;-72
2022/11/30 12:05:11;;;;;;;58.28;30.42;;;6.50;99.90;;;;;;4984821;28;20050;-73
2022/11/30 12:08:05;;;;;;;56.05;30.50;;;7.10;99.90;;;;;;5000864;28;20058;-74
2022/11/30 12:10:36;;;;;;;55.17;29.63;;;6.50;99.90;;;;;;4984183;28;20064;-73
2022/11/30 12:13:10;;;;;;;55.10;29.73;;;6.50;99.90;;;;;;4981820;28;20052;-72
2022/11/30 12:15:52;;;;;;;59.67;31.33;;;6.50;99.90;;;;;;4999071;28;20076;-72
2022/11/30 12:18:20;;;;;;;54.28;29.20;;;6.50;99.90;;;;;;4984482;28;20046;-73
2022/11/30 12:21:12;;;;;;;54.50;30.08;;;6.50;99.90;;;;;;4984174;28;20511;-72
2022/11/30 12:23:53;;;;;;;57.60;29.02;;;6.50;99.90;;;;;;4984655;28;20116;-72
2022/11/30 12:26:37;;;;;;;54.97;29.30;;;6.50;99.90;;;;;;4999902;28;20392;-69
2022/11/30 12:29:17;;;;;;;53.40;30.33;;;6.50;99.90;;;;;;5002153;28;20255;-72
2022/11/30 12:32:12;;;;;;;55.50;29.50;;;6.50;99.90;;;;;;4986384;28;20046;-73
2022/11/30 12:34:48;;;;;;;55.15;30.65;;;6.50;99.90;;;;;;4994162;28;20145;-70
2022/11/30 12:37:18;;;;;;;54.20;29.15;;;6.50;99.90;;;;;;4985452;28;20083;-70
2022/11/30 12:40:05;;;;;;;51.83;29.90;;;6.50;99.90;;;;;;5000636;28;20546;-70
2022/11/30 12:42:37;;;;;;;52.08;28.23;;;6.60;99.90;;;;;;4970067;28;20093;-70
2022/11/30 12:45:38;;;;;;;50.83;28.67;;;6.50;99.90;;;;;;4971599;28;20050;-70
2022/11/30 12:48:22;;;;;;;47.33;26.95;;;6.50;99.90;;;;;;5000409;28;20050;-71
2022/11/30 12:51:09;;;;;;;46.58;27.55;;;6.50;99.90;;;;;;4984934;28;20525;-70
2022/11/30 12:53:45;;;;;;;49.40;27.20;;;6.50;99.90;;;;;;4984431;28;20407;-71
2022/11/30 12:56:41;;;;;;;52.42;28.50;;;6.50;99.90;;;;;;4985513;28;20089;-71